RYR1HF EBCI-EGPH
Flight info
| Callsign | RYR1HF |
|---|---|
| Flight time | N/A |
| Altitude | 38000 |
| Route | CIV UY50 LUMEN L610 KOPUL DCT SABER DCT SIVDA DCT BETAX L613 LEHOC DCT INPIP |
| Aircraft | B738/M-SDE3FGILRWY/SB1 |
Departure
| Time | N/A |
|---|---|
| Airport | Brussels South Charleroi Airport (EBCI) |
Arrival
| Time | 2026-04-24 20:03 |
|---|---|
| Airport | Edinburgh Airport (EGPH) |
| Time | Latitude | Longitude | Altitude | Speed | Heading |
|---|---|---|---|---|---|
| 2026-04-24 18:54 | 51.12403 | 3.30030 | 28984 ft | 420 kts | 302° |
| 2026-04-24 18:55 | 51.15659 | 3.22264 | 29854 ft | 423 kts | 302° |
| 2026-04-24 18:55 | 51.17273 | 3.18405 | 30215 ft | 426 kts | 302° |
| 2026-04-24 18:55 | 51.18941 | 3.14410 | 30535 ft | 429 kts | 301° |
| 2026-04-24 18:56 | 51.20595 | 3.10444 | 30909 ft | 429 kts | 301° |
| 2026-04-24 18:56 | 51.22240 | 3.06495 | 31406 ft | 426 kts | 301° |
| 2026-04-24 18:56 | 51.23874 | 3.02566 | 31893 ft | 424 kts | 301° |
| 2026-04-24 18:56 | 51.25480 | 2.98696 | 32289 ft | 424 kts | 301° |
| 2026-04-24 18:57 | 51.27106 | 2.94771 | 32661 ft | 424 kts | 301° |
| 2026-04-24 18:57 | 51.28731 | 2.90845 | 33078 ft | 423 kts | 301° |
| 2026-04-24 18:57 | 51.30347 | 2.86935 | 33532 ft | 421 kts | 301° |
| 2026-04-24 18:57 | 51.31953 | 2.83045 | 34099 ft | 416 kts | 301° |
| 2026-04-24 18:58 | 51.33532 | 2.79201 | 34596 ft | 412 kts | 299° |
| 2026-04-24 18:58 | 51.34860 | 2.75160 | 34870 ft | 410 kts | 291° |
| 2026-04-24 18:58 | 51.35813 | 2.70859 | 35112 ft | 410 kts | 283° |
| 2026-04-24 18:58 | 51.36392 | 2.66393 | 35433 ft | 409 kts | 280° |
| 2026-04-24 18:59 | 51.36916 | 2.61934 | 35798 ft | 407 kts | 279° |
| 2026-04-24 18:59 | 51.37437 | 2.57480 | 36124 ft | 407 kts | 280° |
| 2026-04-24 18:59 | 51.37964 | 2.53039 | 36411 ft | 407 kts | 280° |
| 2026-04-24 18:59 | 51.38497 | 2.48595 | 36713 ft | 406 kts | 280° |
| 2026-04-24 19:00 | 51.39033 | 2.44164 | 37041 ft | 405 kts | 280° |
| 2026-04-24 19:00 | 51.39570 | 2.39741 | 37363 ft | 404 kts | 280° |
| 2026-04-24 19:00 | 51.40104 | 2.35330 | 37630 ft | 404 kts | 280° |
| 2026-04-24 19:00 | 51.40636 | 2.30918 | 37903 ft | 404 kts | 280° |
| 2026-04-24 19:01 | 51.41165 | 2.26508 | 38200 ft | 403 kts | 280° |
| 2026-04-24 19:01 | 51.42246 | 2.17628 | 38274 ft | 409 kts | 280° |
| 2026-04-24 19:02 | 51.43154 | 2.10203 | 38255 ft | 407 kts | 280° |
| 2026-04-24 19:02 | 51.44401 | 1.99911 | 38254 ft | 400 kts | 280° |
| 2026-04-24 19:03 | 51.45438 | 1.91145 | 38253 ft | 400 kts | 280° |
| 2026-04-24 19:03 | 51.46460 | 1.82391 | 38253 ft | 399 kts | 280° |
| 2026-04-24 19:04 | 51.47465 | 1.73682 | 38258 ft | 400 kts | 280° |
| 2026-04-24 19:04 | 51.48475 | 1.64899 | 38262 ft | 401 kts | 279° |
| 2026-04-24 19:05 | 51.49480 | 1.56082 | 38261 ft | 402 kts | 279° |
| 2026-04-24 19:05 | 51.50481 | 1.47242 | 38263 ft | 403 kts | 279° |
| 2026-04-24 19:06 | 51.51480 | 1.38360 | 38260 ft | 405 kts | 279° |
| 2026-04-24 19:06 | 51.52476 | 1.29454 | 38267 ft | 406 kts | 279° |
| 2026-04-24 19:07 | 51.53473 | 1.20511 | 38264 ft | 407 kts | 281° |
| 2026-04-24 19:07 | 51.54384 | 1.16213 | 38260 ft | 409 kts | 296° |
| 2026-04-24 19:07 | 51.55357 | 1.13623 | 38277 ft | 410 kts | 303° |
| 2026-04-24 19:07 | 51.57969 | 1.09123 | 38282 ft | 416 kts | 319° |
| 2026-04-24 19:08 | 51.60319 | 1.06384 | 38268 ft | 418 kts | 322° |
| 2026-04-24 19:08 | 51.65101 | 1.01072 | 38265 ft | 418 kts | 321° |
| 2026-04-24 19:09 | 51.69821 | 0.95623 | 38261 ft | 417 kts | 320° |
| 2026-04-24 19:09 | 51.74293 | 0.89723 | 38278 ft | 414 kts | 316° |
| 2026-04-24 19:10 | 51.78637 | 0.83609 | 38265 ft | 414 kts | 316° |
| 2026-04-24 19:10 | 51.83110 | 0.77721 | 38277 ft | 415 kts | 319° |
| 2026-04-24 19:11 | 51.87724 | 0.72100 | 38263 ft | 415 kts | 320° |
| 2026-04-24 19:11 | 51.92326 | 0.66476 | 38264 ft | 414 kts | 320° |
| 2026-04-24 19:12 | 51.96865 | 0.60858 | 38264 ft | 413 kts | 319° |
| 2026-04-24 19:12 | 52.01415 | 0.55181 | 38262 ft | 412 kts | 319° |
| 2026-04-24 19:13 | 52.05214 | 0.50422 | 38277 ft | 411 kts | 319° |
| 2026-04-24 19:13 | 52.10473 | 0.43816 | 38258 ft | 411 kts | 319° |
| 2026-04-24 19:14 | 52.14986 | 0.38132 | 38254 ft | 410 kts | 319° |
| 2026-04-24 19:14 | 52.19493 | 0.32442 | 38256 ft | 410 kts | 319° |
| 2026-04-24 19:15 | 52.23996 | 0.26741 | 38257 ft | 410 kts | 319° |
| 2026-04-24 19:15 | 52.28494 | 0.21031 | 38279 ft | 409 kts | 319° |
| 2026-04-24 19:16 | 52.35235 | 0.12446 | 38257 ft | 409 kts | 319° |
| 2026-04-24 19:16 | 52.39726 | 0.06708 | 38255 ft | 409 kts | 319° |
| 2026-04-24 19:17 | 52.44212 | 0.00960 | 38259 ft | 409 kts | 319° |
| 2026-04-24 19:17 | 52.48693 | -0.04796 | 38256 ft | 409 kts | 319° |
| 2026-04-24 19:18 | 52.53170 | -0.10563 | 38274 ft | 409 kts | 320° |
| 2026-04-24 19:18 | 52.57652 | -0.16350 | 38268 ft | 410 kts | 320° |
| 2026-04-24 19:19 | 52.62133 | -0.22154 | 38266 ft | 410 kts | 320° |
| 2026-04-24 19:19 | 52.66614 | -0.27971 | 38266 ft | 410 kts | 320° |
| 2026-04-24 19:20 | 52.71068 | -0.33769 | 38266 ft | 411 kts | 319° |
| 2026-04-24 19:20 | 52.75550 | -0.39620 | 38267 ft | 411 kts | 319° |
| 2026-04-24 19:21 | 52.80035 | -0.45491 | 38270 ft | 412 kts | 320° |
| 2026-04-24 19:21 | 52.84519 | -0.51375 | 38268 ft | 412 kts | 320° |
| 2026-04-24 19:22 | 52.89005 | -0.57279 | 38268 ft | 412 kts | 320° |
| 2026-04-24 19:22 | 52.93495 | -0.63204 | 38269 ft | 412 kts | 319° |
| 2026-04-24 19:23 | 52.97977 | -0.69135 | 38266 ft | 413 kts | 319° |
| 2026-04-24 19:23 | 53.02464 | -0.75089 | 38270 ft | 413 kts | 320° |
| 2026-04-24 19:24 | 53.06953 | -0.81062 | 38271 ft | 414 kts | 320° |
| 2026-04-24 19:24 | 53.11444 | -0.87053 | 38270 ft | 414 kts | 320° |
| 2026-04-24 19:25 | 53.15942 | -0.93071 | 38270 ft | 415 kts | 320° |
| 2026-04-24 19:25 | 53.20440 | -0.99106 | 38273 ft | 416 kts | 320° |
| 2026-04-24 19:26 | 53.24943 | -1.05164 | 38278 ft | 416 kts | 320° |
| 2026-04-24 19:26 | 53.29450 | -1.11243 | 38265 ft | 416 kts | 320° |
| 2026-04-24 19:27 | 53.33952 | -1.17336 | 38271 ft | 417 kts | 320° |
| 2026-04-24 19:27 | 53.38458 | -1.23448 | 38273 ft | 417 kts | 320° |
| 2026-04-24 19:28 | 53.43056 | -1.29355 | 38256 ft | 417 kts | 328° |
| 2026-04-24 19:28 | 53.48127 | -1.34118 | 38266 ft | 418 kts | 330° |
| 2026-04-24 19:29 | 53.55725 | -1.41142 | 38263 ft | 417 kts | 330° |
| 2026-04-24 19:30 | 53.60783 | -1.45925 | 38268 ft | 417 kts | 329° |
| 2026-04-24 19:30 | 53.65832 | -1.50730 | 38268 ft | 417 kts | 329° |
| 2026-04-24 19:31 | 53.70879 | -1.55542 | 38269 ft | 416 kts | 329° |
| 2026-04-24 19:31 | 53.75637 | -1.61030 | 38267 ft | 414 kts | 317° |
| 2026-04-24 19:32 | 53.79870 | -1.67641 | 38263 ft | 414 kts | 316° |
| 2026-04-24 19:32 | 53.84092 | -1.74274 | 38268 ft | 414 kts | 317° |
| 2026-04-24 19:33 | 53.88340 | -1.80861 | 38264 ft | 414 kts | 317° |
| 2026-04-24 19:33 | 53.92597 | -1.87445 | 38270 ft | 414 kts | 317° |
| 2026-04-24 19:34 | 53.96850 | -1.94040 | 38263 ft | 414 kts | 317° |
| 2026-04-24 19:34 | 54.01107 | -2.00642 | 38271 ft | 414 kts | 319° |
| 2026-04-24 19:35 | 54.05895 | -2.06068 | 38271 ft | 414 kts | 329° |
| 2026-04-24 19:35 | 54.10888 | -2.10977 | 38268 ft | 414 kts | 329° |
| 2026-04-24 19:36 | 54.15874 | -2.15912 | 38259 ft | 414 kts | 328° |
| 2026-04-24 19:36 | 54.20895 | -2.20956 | 38273 ft | 424 kts | 328° |
| 2026-04-24 19:37 | 54.26001 | -2.26112 | 37922 ft | 425 kts | 328° |
| 2026-04-24 19:37 | 54.28549 | -2.28690 | 37141 ft | 427 kts | 328° |
| 2026-04-24 19:37 | 54.31125 | -2.31303 | 36204 ft | 434 kts | 328° |
| 2026-04-24 19:37 | 54.33740 | -2.33960 | 35340 ft | 439 kts | 328° |
| 2026-04-24 19:38 | 54.35473 | -2.35722 | 35089 ft | 433 kts | 328° |
| 2026-04-24 19:38 | 54.38066 | -2.38362 | 34601 ft | 436 kts | 328° |
| 2026-04-24 19:38 | 54.40698 | -2.41046 | 34231 ft | 444 kts | 328° |
| 2026-04-24 19:38 | 54.43372 | -2.43777 | 33830 ft | 450 kts | 328° |
| 2026-04-24 19:39 | 54.46070 | -2.46537 | 33452 ft | 449 kts | 328° |
| 2026-04-24 19:39 | 54.48731 | -2.49261 | 32864 ft | 442 kts | 329° |
| 2026-04-24 19:39 | 54.51374 | -2.51972 | 32064 ft | 443 kts | 329° |
| 2026-04-24 19:39 | 54.54029 | -2.54699 | 31290 ft | 444 kts | 329° |
| 2026-04-24 19:40 | 54.56679 | -2.57426 | 30636 ft | 443 kts | 329° |
| 2026-04-24 19:40 | 54.59318 | -2.60147 | 30007 ft | 440 kts | 329° |
| 2026-04-24 19:40 | 54.61929 | -2.62843 | 29377 ft | 435 kts | 329° |
| 2026-04-24 19:40 | 54.64509 | -2.65514 | 28869 ft | 429 kts | 329° |
| 2026-04-24 19:41 | 54.67047 | -2.68142 | 28467 ft | 421 kts | 329° |
| 2026-04-24 19:41 | 54.69537 | -2.70721 | 28043 ft | 415 kts | 329° |
| 2026-04-24 19:41 | 54.72024 | -2.73303 | 27648 ft | 420 kts | 329° |
| 2026-04-24 19:41 | 54.74544 | -2.75919 | 27279 ft | 425 kts | 329° |
| 2026-04-24 19:42 | 54.77080 | -2.78559 | 26896 ft | 424 kts | 329° |
| 2026-04-24 19:42 | 54.79595 | -2.81183 | 26516 ft | 420 kts | 329° |
| 2026-04-24 19:42 | 54.82088 | -2.83785 | 26138 ft | 417 kts | 329° |
| 2026-04-24 19:42 | 54.84560 | -2.86370 | 25767 ft | 414 kts | 329° |
| 2026-04-24 19:43 | 54.87021 | -2.88946 | 25390 ft | 412 kts | 329° |
| 2026-04-24 19:43 | 54.89547 | -2.91295 | 24905 ft | 413 kts | 335° |
| 2026-04-24 19:43 | 54.92191 | -2.93249 | 24441 ft | 413 kts | 338° |
| 2026-04-24 19:43 | 54.94868 | -2.95071 | 23979 ft | 412 kts | 339° |
| 2026-04-24 19:44 | 54.97530 | -2.96878 | 23458 ft | 408 kts | 339° |
| 2026-04-24 19:44 | 55.00154 | -2.98701 | 22917 ft | 404 kts | 338° |
| 2026-04-24 19:44 | 55.02744 | -3.00544 | 22375 ft | 401 kts | 338° |
| 2026-04-24 19:44 | 55.05312 | -3.02401 | 21845 ft | 397 kts | 337° |
| 2026-04-24 19:45 | 55.07848 | -3.04250 | 21335 ft | 394 kts | 337° |
| 2026-04-24 19:45 | 55.10364 | -3.06087 | 20825 ft | 390 kts | 337° |
| 2026-04-24 19:45 | 55.12857 | -3.07911 | 20321 ft | 387 kts | 337° |
| 2026-04-24 19:45 | 55.15332 | -3.09721 | 19829 ft | 384 kts | 337° |
| 2026-04-24 19:46 | 55.17782 | -3.11516 | 19352 ft | 381 kts | 337° |
| 2026-04-24 19:46 | 55.20221 | -3.13306 | 18872 ft | 379 kts | 337° |
| 2026-04-24 19:46 | 55.22641 | -3.15083 | 18394 ft | 376 kts | 336° |
| 2026-04-24 19:46 | 55.25015 | -3.16829 | 17868 ft | 374 kts | 336° |
| 2026-04-24 19:47 | 55.27438 | -3.18613 | 17324 ft | 371 kts | 336° |
| 2026-04-24 19:47 | 55.29868 | -3.20111 | 16697 ft | 372 kts | 349° |
| 2026-04-24 19:47 | 55.32454 | -3.20206 | 16100 ft | 373 kts | 4° |
| 2026-04-24 19:47 | 55.35004 | -3.19808 | 15483 ft | 373 kts | 5° |
| 2026-04-24 19:48 | 55.37583 | -3.19356 | 14874 ft | 372 kts | 5° |
| 2026-04-24 19:48 | 55.40151 | -3.18908 | 14283 ft | 370 kts | 5° |
| 2026-04-24 19:48 | 55.45255 | -3.18048 | 12994 ft | 367 kts | 4° |
| 2026-04-24 19:49 | 55.50293 | -3.17239 | 12079 ft | 354 kts | 4° |
| 2026-04-24 19:49 | 55.55004 | -3.16495 | 11730 ft | 323 kts | 4° |
| 2026-04-24 19:50 | 55.61213 | -3.15514 | 11031 ft | 280 kts | 4° |
| 2026-04-24 19:50 | 55.63122 | -3.15213 | 10754 ft | 271 kts | 4° |
| 2026-04-24 19:51 | 55.66844 | -3.14669 | 10047 ft | 269 kts | 1° |
| 2026-04-24 19:51 | 55.68719 | -3.14422 | 9676 ft | 271 kts | 4° |
| 2026-04-24 19:52 | 55.72403 | -3.15078 | 8880 ft | 272 kts | 329° |
| 2026-04-24 19:52 | 55.73757 | -3.17385 | 8510 ft | 273 kts | 302° |
| 2026-04-24 19:52 | 55.74344 | -3.20556 | 8247 ft | 271 kts | 276° |
| 2026-04-24 19:52 | 55.74379 | -3.23838 | 7997 ft | 261 kts | 270° |
| 2026-04-24 19:53 | 55.74332 | -3.27009 | 7739 ft | 253 kts | 270° |
| 2026-04-24 19:53 | 55.74274 | -3.30076 | 7483 ft | 245 kts | 270° |
| 2026-04-24 19:53 | 55.74152 | -3.36006 | 6999 ft | 239 kts | 269° |
| 2026-04-24 19:54 | 55.74091 | -3.38955 | 6746 ft | 239 kts | 269° |
| 2026-04-24 19:54 | 55.74031 | -3.41900 | 6499 ft | 238 kts | 269° |
| 2026-04-24 19:54 | 55.73974 | -3.44833 | 6242 ft | 238 kts | 269° |
| 2026-04-24 19:54 | 55.73918 | -3.47767 | 5985 ft | 237 kts | 269° |
| 2026-04-24 19:55 | 55.73882 | -3.49704 | 5812 ft | 237 kts | 269° |
| 2026-04-24 19:55 | 55.73813 | -3.53602 | 5480 ft | 236 kts | 269° |
| 2026-04-24 19:55 | 55.73765 | -3.56515 | 5233 ft | 236 kts | 269° |
| 2026-04-24 19:55 | 55.73719 | -3.59408 | 5037 ft | 233 kts | 269° |
| 2026-04-24 19:56 | 55.73677 | -3.62263 | 4852 ft | 230 kts | 270° |
| 2026-04-24 19:56 | 55.74005 | -3.64981 | 4642 ft | 227 kts | 300° |
| 2026-04-24 19:56 | 55.75093 | -3.66969 | 4492 ft | 228 kts | 326° |
| 2026-04-24 19:56 | 55.76446 | -3.68473 | 4331 ft | 231 kts | 329° |
| 2026-04-24 19:57 | 55.77837 | -3.69949 | 4158 ft | 234 kts | 329° |
| 2026-04-24 19:57 | 55.79229 | -3.71416 | 4030 ft | 231 kts | 329° |
| 2026-04-24 19:57 | 55.80668 | -3.72571 | 3979 ft | 226 kts | 352° |
| 2026-04-24 19:57 | 55.82136 | -3.72059 | 3988 ft | 215 kts | 33° |
| 2026-04-24 19:58 | 55.83226 | -3.70231 | 4007 ft | 216 kts | 45° |
| 2026-04-24 19:58 | 55.84200 | -3.68292 | 3909 ft | 209 kts | 50° |
| 2026-04-24 19:58 | 55.85101 | -3.66264 | 3654 ft | 205 kts | 52° |
| 2026-04-24 19:58 | 55.85903 | -3.64191 | 3404 ft | 202 kts | 56° |
| 2026-04-24 19:59 | 55.86633 | -3.62081 | 3141 ft | 199 kts | 58° |
| 2026-04-24 19:59 | 55.87337 | -3.59987 | 2871 ft | 196 kts | 58° |
| 2026-04-24 19:59 | 55.88029 | -3.57922 | 2606 ft | 193 kts | 58° |
| 2026-04-24 19:59 | 55.88713 | -3.55887 | 2356 ft | 190 kts | 58° |
| 2026-04-24 20:00 | 55.89374 | -3.53921 | 2096 ft | 183 kts | 58° |
| 2026-04-24 20:00 | 55.90008 | -3.52038 | 1864 ft | 172 kts | 58° |
| 2026-04-24 20:00 | 55.90607 | -3.50258 | 1631 ft | 162 kts | 58° |
| 2026-04-24 20:00 | 55.91179 | -3.48561 | 1424 ft | 158 kts | 58° |
| 2026-04-24 20:01 | 55.91729 | -3.46930 | 1210 ft | 150 kts | 59° |
| 2026-04-24 20:01 | 55.92257 | -3.45363 | 1017 ft | 146 kts | 58° |
| 2026-04-24 20:01 | 55.92780 | -3.43813 | 824 ft | 145 kts | 59° |
| 2026-04-24 20:01 | 55.93291 | -3.42298 | 638 ft | 141 kts | 58° |
| 2026-04-24 20:02 | 55.93625 | -3.41310 | 509 ft | 139 kts | 58° |
| 2026-04-24 20:02 | 55.94289 | -3.39347 | 247 ft | 137 kts | 58° |
| 2026-04-24 20:02 | 55.94782 | -3.37903 | 116 ft | 130 kts | 60° |
| 2026-04-24 20:02 | 55.95151 | -3.36806 | 111 ft | 68 kts | 59° |
| 2026-04-24 20:03 | 55.95263 | -3.36463 | 110 ft | 12 kts | 87° |
| 2026-04-24 20:03 | 55.95213 | -3.36372 | 110 ft | 8 kts | 150° |
| 2026-04-24 20:03 | 55.95178 | -3.36335 | 114 ft | 2 kts | 149° |
| 2026-04-24 20:03 | 55.95177 | -3.36335 | 114 ft | 0 kts | 149° |
| 2026-04-24 20:04 | 55.95164 | -3.36319 | 114 ft | 6 kts | 143° |
| 2026-04-24 20:04 | 55.95130 | -3.36191 | 115 ft | 15 kts | 108° |
| 2026-04-24 20:04 | 55.95097 | -3.36012 | 112 ft | 15 kts | 108° |
| 2026-04-24 20:05 | 55.95059 | -3.35880 | 114 ft | 11 kts | 120° |
| 2026-04-24 20:05 | 55.94998 | -3.35847 | 115 ft | 11 kts | 210° |
| 2026-04-24 20:05 | 55.94929 | -3.35840 | 114 ft | 11 kts | 140° |
| 2026-04-24 20:05 | 55.94891 | -3.35730 | 113 ft | 10 kts | 118° |
| 2026-04-24 20:06 | 55.94853 | -3.35705 | 115 ft | 7 kts | 207° |
| 2026-04-24 20:06 | 55.94813 | -3.35747 | 115 ft | 5 kts | 209° |
| 2026-04-24 20:06 | 55.94811 | -3.35748 | 115 ft | 1 kts | 208° |
| 2026-04-24 20:06 | 55.94809 | -3.35751 | 112 ft | 0 kts | 208° |